sensor_id;sensor_type;location;lat;lon;timestamp;P1;durP1;ratioP1;P2;durP2;ratioP2
836;SDS011;400;53.550;9.932;2022-12-08T00:00:44;17.40;;;15.52;;
836;SDS011;400;53.550;9.932;2022-12-08T00:03:10;17.05;;;14.93;;
836;SDS011;400;53.550;9.932;2022-12-08T00:05:37;18.00;;;15.93;;
836;SDS011;400;53.550;9.932;2022-12-08T00:08:26;16.23;;;14.52;;
836;SDS011;400;53.550;9.932;2022-12-08T00:11:11;18.27;;;15.13;;
836;SDS011;400;53.550;9.932;2022-12-08T00:13:39;19.15;;;16.73;;
836;SDS011;400;53.550;9.932;2022-12-08T00:16:07;17.40;;;15.60;;
836;SDS011;400;53.550;9.932;2022-12-08T00:18:34;18.35;;;16.38;;
836;SDS011;400;53.550;9.932;2022-12-08T00:21:01;18.08;;;15.45;;
836;SDS011;400;53.550;9.932;2022-12-08T00:23:28;18.60;;;16.58;;
836;SDS011;400;53.550;9.932;2022-12-08T00:25:55;15.45;;;13.85;;
836;SDS011;400;53.550;9.932;2022-12-08T00:28:26;16.25;;;14.55;;
836;SDS011;400;53.550;9.932;2022-12-08T00:30:54;16.30;;;14.43;;
836;SDS011;400;53.550;9.932;2022-12-08T00:33:21;16.27;;;14.68;;
836;SDS011;400;53.550;9.932;2022-12-08T00:35:49;16.63;;;15.02;;
836;SDS011;400;53.550;9.932;2022-12-08T00:38:16;16.52;;;14.90;;
836;SDS011;400;53.550;9.932;2022-12-08T00:40:43;19.60;;;15.60;;
836;SDS011;400;53.550;9.932;2022-12-08T00:43:10;23.63;;;14.60;;
836;SDS011;400;53.550;9.932;2022-12-08T00:45:37;14.10;;;12.60;;
836;SDS011;400;53.550;9.932;2022-12-08T00:48:06;14.93;;;13.43;;
836;SDS011;400;53.550;9.932;2022-12-08T00:50:32;13.20;;;11.88;;
836;SDS011;400;53.550;9.932;2022-12-08T00:53:00;14.20;;;12.70;;
836;SDS011;400;53.550;9.932;2022-12-08T00:55:27;14.48;;;12.07;;
836;SDS011;400;53.550;9.932;2022-12-08T00:57:54;13.70;;;12.30;;
836;SDS011;400;53.550;9.932;2022-12-08T01:00:21;17.23;;;12.80;;
836;SDS011;400;53.550;9.932;2022-12-08T01:02:48;12.52;;;11.32;;
836;SDS011;400;53.550;9.932;2022-12-08T01:05:16;13.02;;;11.65;;
836;SDS011;400;53.550;9.932;2022-12-08T01:07:43;12.82;;;11.30;;
836;SDS011;400;53.550;9.932;2022-12-08T01:10:10;11.10;;;10.10;;
836;SDS011;400;53.550;9.932;2022-12-08T01:12:37;10.15;;;9.15;;
836;SDS011;400;53.550;9.932;2022-12-08T01:15:04;10.68;;;9.68;;
836;SDS011;400;53.550;9.932;2022-12-08T01:17:32;10.57;;;9.10;;
836;SDS011;400;53.550;9.932;2022-12-08T01:19:59;11.13;;;9.93;;
836;SDS011;400;53.550;9.932;2022-12-08T01:22:28;12.02;;;9.30;;
836;SDS011;400;53.550;9.932;2022-12-08T01:24:55;12.05;;;10.82;;
836;SDS011;400;53.550;9.932;2022-12-08T01:27:22;11.23;;;9.02;;
836;SDS011;400;53.550;9.932;2022-12-08T01:29:49;10.15;;;9.27;;
836;SDS011;400;53.550;9.932;2022-12-08T01:32:16;10.70;;;9.07;;
836;SDS011;400;53.550;9.932;2022-12-08T01:34:43;9.18;;;8.27;;
836;SDS011;400;53.550;9.932;2022-12-08T01:37:10;10.40;;;8.98;;
836;SDS011;400;53.550;9.932;2022-12-08T01:39:39;10.52;;;9.50;;
836;SDS011;400;53.550;9.932;2022-12-08T01:42:08;10.38;;;9.48;;
836;SDS011;400;53.550;9.932;2022-12-08T01:44:56;10.02;;;9.00;;
836;SDS011;400;53.550;9.932;2022-12-08T01:47:26;9.57;;;8.68;;
836;SDS011;400;53.550;9.932;2022-12-08T01:52:35;9.90;;;8.40;;
836;SDS011;400;53.550;9.932;2022-12-08T01:55:07;8.80;;;8.00;;
836;SDS011;400;53.550;9.932;2022-12-08T01:57:39;7.28;;;6.57;;
836;SDS011;400;53.550;9.932;2022-12-08T02:00:09;7.85;;;7.05;;
836;SDS011;400;53.550;9.932;2022-12-08T02:02:43;9.95;;;7.05;;
836;SDS011;400;53.550;9.932;2022-12-08T02:05:17;6.78;;;5.70;;
836;SDS011;400;53.550;9.932;2022-12-08T02:07:46;7.03;;;6.40;;
836;SDS011;400;53.550;9.932;2022-12-08T02:10:17;7.30;;;6.60;;
836;SDS011;400;53.550;9.932;2022-12-08T02:12:46;10.40;;;6.53;;
836;SDS011;400;53.550;9.932;2022-12-08T02:15:14;8.10;;;7.30;;
836;SDS011;400;53.550;9.932;2022-12-08T02:17:46;7.50;;;6.90;;
836;SDS011;400;53.550;9.932;2022-12-08T02:23:17;7.38;;;6.70;;
836;SDS011;400;53.550;9.932;2022-12-08T02:28:53;6.68;;;5.97;;
836;SDS011;400;53.550;9.932;2022-12-08T02:31:35;8.00;;;7.25;;
836;SDS011;400;53.550;9.932;2022-12-08T02:34:16;6.90;;;6.30;;
836;SDS011;400;53.550;9.932;2022-12-08T02:36:50;7.95;;;6.78;;
836;SDS011;400;53.550;9.932;2022-12-08T02:39:27;6.93;;;5.78;;
836;SDS011;400;53.550;9.932;2022-12-08T02:42:01;6.47;;;5.97;;
836;SDS011;400;53.550;9.932;2022-12-08T02:44:34;8.27;;;6.47;;
836;SDS011;400;53.550;9.932;2022-12-08T02:47:09;7.00;;;6.13;;
836;SDS011;400;53.550;9.932;2022-12-08T02:49:40;6.57;;;5.65;;
836;SDS011;400;53.550;9.932;2022-12-08T02:52:36;6.55;;;5.95;;
836;SDS011;400;53.550;9.932;2022-12-08T02:55:04;6.20;;;5.70;;
836;SDS011;400;53.550;9.932;2022-12-08T02:57:36;6.40;;;5.70;;
836;SDS011;400;53.550;9.932;2022-12-08T03:00:17;5.97;;;5.22;;
836;SDS011;400;53.550;9.932;2022-12-08T03:02:50;5.60;;;5.00;;
836;SDS011;400;53.550;9.932;2022-12-08T03:05:37;6.32;;;5.72;;
836;SDS011;400;53.550;9.932;2022-12-08T03:08:19;6.70;;;5.43;;
836;SDS011;400;53.550;9.932;2022-12-08T03:10:52;5.72;;;5.22;;
836;SDS011;400;53.550;9.932;2022-12-08T03:13:27;5.72;;;5.25;;
836;SDS011;400;53.550;9.932;2022-12-08T03:15:59;4.97;;;4.57;;
836;SDS011;400;53.550;9.932;2022-12-08T03:18:30;5.40;;;4.90;;
836;SDS011;400;53.550;9.932;2022-12-08T03:21:04;4.25;;;3.85;;
836;SDS011;400;53.550;9.932;2022-12-08T03:23:32;5.53;;;4.28;;
836;SDS011;400;53.550;9.932;2022-12-08T03:26:03;4.40;;;4.00;;
836;SDS011;400;53.550;9.932;2022-12-08T03:28:33;4.80;;;4.40;;
836;SDS011;400;53.550;9.932;2022-12-08T03:31:01;5.20;;;3.63;;
836;SDS011;400;53.550;9.932;2022-12-08T03:33:31;4.20;;;3.80;;
836;SDS011;400;53.550;9.932;2022-12-08T03:36:03;4.28;;;3.95;;
836;SDS011;400;53.550;9.932;2022-12-08T03:38:35;4.05;;;3.47;;
836;SDS011;400;53.550;9.932;2022-12-08T03:41:08;5.25;;;4.70;;
836;SDS011;400;53.550;9.932;2022-12-08T03:43:44;3.95;;;3.55;;
836;SDS011;400;53.550;9.932;2022-12-08T03:46:12;6.03;;;4.88;;
836;SDS011;400;53.550;9.932;2022-12-08T03:48:39;3.70;;;3.40;;
836;SDS011;400;53.550;9.932;2022-12-08T03:51:08;4.00;;;3.70;;
836;SDS011;400;53.550;9.932;2022-12-08T03:53:35;4.28;;;3.55;;
836;SDS011;400;53.550;9.932;2022-12-08T03:58:46;3.95;;;3.65;;
836;SDS011;400;53.550;9.932;2022-12-08T04:01:15;3.40;;;3.10;;
836;SDS011;400;53.550;9.932;2022-12-08T04:03:42;4.55;;;4.20;;
836;SDS011;400;53.550;9.932;2022-12-08T04:06:11;3.58;;;3.20;;
836;SDS011;400;53.550;9.932;2022-12-08T04:08:41;3.05;;;2.83;;
836;SDS011;400;53.550;9.932;2022-12-08T04:11:09;2.90;;;2.65;;
836;SDS011;400;53.550;9.932;2022-12-08T04:13:36;2.10;;;1.90;;
836;SDS011;400;53.550;9.932;2022-12-08T04:16:05;1.92;;;1.70;;
836;SDS011;400;53.550;9.932;2022-12-08T04:18:32;2.80;;;1.83;;
836;SDS011;400;53.550;9.932;2022-12-08T04:21:00;2.38;;;2.17;;
836;SDS011;400;53.550;9.932;2022-12-08T04:23:28;1.73;;;1.63;;
836;SDS011;400;53.550;9.932;2022-12-08T04:25:55;2.00;;;1.77;;
836;SDS011;400;53.550;9.932;2022-12-08T04:28:22;1.67;;;1.58;;
836;SDS011;400;53.550;9.932;2022-12-08T04:30:49;2.08;;;1.77;;
836;SDS011;400;53.550;9.932;2022-12-08T04:33:16;1.60;;;1.50;;
836;SDS011;400;53.550;9.932;2022-12-08T04:35:43;1.80;;;1.70;;
836;SDS011;400;53.550;9.932;2022-12-08T04:38:10;1.80;;;1.70;;
836;SDS011;400;53.550;9.932;2022-12-08T04:40:41;2.08;;;1.98;;
836;SDS011;400;53.550;9.932;2022-12-08T04:43:08;4.93;;;3.20;;
836;SDS011;400;53.550;9.932;2022-12-08T04:45:37;3.63;;;3.28;;
836;SDS011;400;53.550;9.932;2022-12-08T04:48:07;3.08;;;2.88;;
836;SDS011;400;53.550;9.932;2022-12-08T04:50:37;2.90;;;2.70;;
836;SDS011;400;53.550;9.932;2022-12-08T04:53:05;2.83;;;2.63;;
836;SDS011;400;53.550;9.932;2022-12-08T04:55:33;3.00;;;2.80;;
836;SDS011;400;53.550;9.932;2022-12-08T04:58:06;2.47;;;2.28;;
836;SDS011;400;53.550;9.932;2022-12-08T05:00:36;2.42;;;2.22;;
836;SDS011;400;53.550;9.932;2022-12-08T05:03:03;3.08;;;2.88;;
836;SDS011;400;53.550;9.932;2022-12-08T05:05:31;4.32;;;2.33;;
836;SDS011;400;53.550;9.932;2022-12-08T05:08:02;2.72;;;2.53;;
836;SDS011;400;53.550;9.932;2022-12-08T05:10:30;1.85;;;1.75;;
836;SDS011;400;53.550;9.932;2022-12-08T05:12:57;2.17;;;2.08;;
836;SDS011;400;53.550;9.932;2022-12-08T05:15:27;1.95;;;1.85;;
836;SDS011;400;53.550;9.932;2022-12-08T05:17:54;1.83;;;1.73;;
836;SDS011;400;53.550;9.932;2022-12-08T05:20:21;1.80;;;1.70;;
836;SDS011;400;53.550;9.932;2022-12-08T05:22:52;1.90;;;1.80;;
836;SDS011;400;53.550;9.932;2022-12-08T05:25:19;1.80;;;1.70;;
836;SDS011;400;53.550;9.932;2022-12-08T05:27:46;1.90;;;1.80;;
836;SDS011;400;53.550;9.932;2022-12-08T05:30:13;1.95;;;1.65;;
836;SDS011;400;53.550;9.932;2022-12-08T05:32:41;2.55;;;2.25;;
836;SDS011;400;53.550;9.932;2022-12-08T05:35:08;2.00;;;1.80;;
836;SDS011;400;53.550;9.932;2022-12-08T05:37:39;1.75;;;1.65;;
836;SDS011;400;53.550;9.932;2022-12-08T05:40:11;1.40;;;1.30;;
836;SDS011;400;53.550;9.932;2022-12-08T05:42:38;2.13;;;1.92;;
836;SDS011;400;53.550;9.932;2022-12-08T05:45:07;1.58;;;1.48;;
836;SDS011;400;53.550;9.932;2022-12-08T05:47:34;1.73;;;1.63;;
836;SDS011;400;53.550;9.932;2022-12-08T05:50:03;1.67;;;1.58;;
836;SDS011;400;53.550;9.932;2022-12-08T05:52:31;1.83;;;1.73;;
836;SDS011;400;53.550;9.932;2022-12-08T05:54:59;1.92;;;1.83;;
836;SDS011;400;53.550;9.932;2022-12-08T05:57:28;1.90;;;1.80;;
836;SDS011;400;53.550;9.932;2022-12-08T06:00:00;1.73;;;1.63;;
836;SDS011;400;53.550;9.932;2022-12-08T06:02:31;2.20;;;2.00;;
836;SDS011;400;53.550;9.932;2022-12-08T06:04:59;1.90;;;1.80;;
836;SDS011;400;53.550;9.932;2022-12-08T06:07:28;2.30;;;2.10;;
836;SDS011;400;53.550;9.932;2022-12-08T06:09:54;2.13;;;2.03;;
836;SDS011;400;53.550;9.932;2022-12-08T06:12:21;2.20;;;2.00;;
836;SDS011;400;53.550;9.932;2022-12-08T06:14:48;1.65;;;1.55;;
836;SDS011;400;53.550;9.932;2022-12-08T06:17:15;1.70;;;1.60;;
836;SDS011;400;53.550;9.932;2022-12-08T06:19:42;2.10;;;1.88;;
836;SDS011;400;53.550;9.932;2022-12-08T06:22:09;1.83;;;1.73;;
836;SDS011;400;53.550;9.932;2022-12-08T06:24:37;2.13;;;2.03;;
836;SDS011;400;53.550;9.932;2022-12-08T06:27:04;2.10;;;2.00;;
836;SDS011;400;53.550;9.932;2022-12-08T06:29:31;1.95;;;1.85;;
836;SDS011;400;53.550;9.932;2022-12-08T06:31:58;2.45;;;2.25;;
836;SDS011;400;53.550;9.932;2022-12-08T06:34:24;2.63;;;2.40;;
836;SDS011;400;53.550;9.932;2022-12-08T06:36:51;2.38;;;2.20;;
836;SDS011;400;53.550;9.932;2022-12-08T06:39:18;2.85;;;2.65;;
836;SDS011;400;53.550;9.932;2022-12-08T06:41:52;2.53;;;2.42;;
836;SDS011;400;53.550;9.932;2022-12-08T06:44:41;4.50;;;2.83;;
836;SDS011;400;53.550;9.932;2022-12-08T06:47:15;3.28;;;2.97;;
836;SDS011;400;53.550;9.932;2022-12-08T06:49:48;3.35;;;3.05;;
836;SDS011;400;53.550;9.932;2022-12-08T06:52:24;6.10;;;3.10;;
836;SDS011;400;53.550;9.932;2022-12-08T06:54:54;3.60;;;3.30;;
836;SDS011;400;53.550;9.932;2022-12-08T06:57:23;4.68;;;4.28;;
836;SDS011;400;53.550;9.932;2022-12-08T06:59:52;3.75;;;3.45;;
836;SDS011;400;53.550;9.932;2022-12-08T07:02:26;14.77;;;13.10;;
836;SDS011;400;53.550;9.932;2022-12-08T07:04:55;4.38;;;4.07;;
836;SDS011;400;53.550;9.932;2022-12-08T07:07:30;4.57;;;4.10;;
836;SDS011;400;53.550;9.932;2022-12-08T07:09:57;4.63;;;4.32;;
836;SDS011;400;53.550;9.932;2022-12-08T07:12:27;5.03;;;3.85;;
836;SDS011;400;53.550;9.932;2022-12-08T07:14:56;5.20;;;4.70;;
836;SDS011;400;53.550;9.932;2022-12-08T07:17:24;5.10;;;4.60;;
836;SDS011;400;53.550;9.932;2022-12-08T07:20:01;4.65;;;4.25;;
836;SDS011;400;53.550;9.932;2022-12-08T07:22:31;5.80;;;5.30;;
836;SDS011;400;53.550;9.932;2022-12-08T07:25:02;5.47;;;4.97;;
836;SDS011;400;53.550;9.932;2022-12-08T07:27:34;5.03;;;4.63;;
836;SDS011;400;53.550;9.932;2022-12-08T07:30:01;4.65;;;4.25;;
836;SDS011;400;53.550;9.932;2022-12-08T07:32:32;5.68;;;5.18;;
836;SDS011;400;53.550;9.932;2022-12-08T07:35:04;5.90;;;5.40;;
836;SDS011;400;53.550;9.932;2022-12-08T07:37:36;6.68;;;5.70;;
836;SDS011;400;53.550;9.932;2022-12-08T07:40:03;6.07;;;5.47;;
836;SDS011;400;53.550;9.932;2022-12-08T07:42:38;6.57;;;5.97;;
836;SDS011;400;53.550;9.932;2022-12-08T07:45:12;5.93;;;5.43;;
836;SDS011;400;53.550;9.932;2022-12-08T07:47:45;6.22;;;5.63;;
836;SDS011;400;53.550;9.932;2022-12-08T07:50:15;6.10;;;5.50;;
836;SDS011;400;53.550;9.932;2022-12-08T07:52:46;6.22;;;5.53;;
836;SDS011;400;53.550;9.932;2022-12-08T07:55:15;6.50;;;5.90;;
836;SDS011;400;53.550;9.932;2022-12-08T07:57:49;7.03;;;6.20;;
836;SDS011;400;53.550;9.932;2022-12-08T08:00:17;8.57;;;5.70;;
836;SDS011;400;53.550;9.932;2022-12-08T08:02:44;6.45;;;5.85;;
836;SDS011;400;53.550;9.932;2022-12-08T08:05:11;7.90;;;6.40;;
836;SDS011;400;53.550;9.932;2022-12-08T08:07:39;26.45;;;21.75;;
836;SDS011;400;53.550;9.932;2022-12-08T08:10:08;7.30;;;6.57;;
836;SDS011;400;53.550;9.932;2022-12-08T08:12:37;6.13;;;5.57;;
836;SDS011;400;53.550;9.932;2022-12-08T08:15:09;6.70;;;5.72;;
836;SDS011;400;53.550;9.932;2022-12-08T08:17:38;5.93;;;5.38;;
836;SDS011;400;53.550;9.932;2022-12-08T08:20:05;5.05;;;4.65;;
836;SDS011;400;53.550;9.932;2022-12-08T08:22:34;6.32;;;5.15;;
836;SDS011;400;53.550;9.932;2022-12-08T08:25:02;6.30;;;5.45;;
836;SDS011;400;53.550;9.932;2022-12-08T08:27:30;7.95;;;5.43;;
836;SDS011;400;53.550;9.932;2022-12-08T08:30:03;5.80;;;5.30;;
836;SDS011;400;53.550;9.932;2022-12-08T08:32:35;5.95;;;5.20;;
836;SDS011;400;53.550;9.932;2022-12-08T08:35:08;5.28;;;4.85;;
836;SDS011;400;53.550;9.932;2022-12-08T08:37:35;6.20;;;5.60;;
836;SDS011;400;53.550;9.932;2022-12-08T08:40:03;6.20;;;5.70;;
836;SDS011;400;53.550;9.932;2022-12-08T08:42:34;6.18;;;5.57;;
836;SDS011;400;53.550;9.932;2022-12-08T08:45:04;6.07;;;5.50;;
836;SDS011;400;53.550;9.932;2022-12-08T08:47:33;5.07;;;4.35;;
836;SDS011;400;53.550;9.932;2022-12-08T08:50:06;4.40;;;4.03;;
836;SDS011;400;53.550;9.932;2022-12-08T08:52:36;6.03;;;5.53;;
836;SDS011;400;53.550;9.932;2022-12-08T08:55:04;5.30;;;4.80;;
836;SDS011;400;53.550;9.932;2022-12-08T08:57:31;5.28;;;4.88;;
836;SDS011;400;53.550;9.932;2022-12-08T08:59:58;4.22;;;3.92;;
836;SDS011;400;53.550;9.932;2022-12-08T09:02:25;6.00;;;4.95;;
836;SDS011;400;53.550;9.932;2022-12-08T09:04:54;5.30;;;4.85;;
836;SDS011;400;53.550;9.932;2022-12-08T09:07:21;5.07;;;4.50;;
836;SDS011;400;53.550;9.932;2022-12-08T09:09:48;5.22;;;4.72;;
836;SDS011;400;53.550;9.932;2022-12-08T09:12:15;5.22;;;4.78;;
836;SDS011;400;53.550;9.932;2022-12-08T09:14:43;5.38;;;4.90;;
836;SDS011;400;53.550;9.932;2022-12-08T09:17:11;4.95;;;4.55;;
836;SDS011;400;53.550;9.932;2022-12-08T09:19:41;5.95;;;5.28;;
836;SDS011;400;53.550;9.932;2022-12-08T09:22:11;4.95;;;4.40;;
836;SDS011;400;53.550;9.932;2022-12-08T09:24:40;5.75;;;5.15;;
836;SDS011;400;53.550;9.932;2022-12-08T09:27:07;6.00;;;5.10;;
836;SDS011;400;53.550;9.932;2022-12-08T09:29:34;6.50;;;5.90;;
836;SDS011;400;53.550;9.932;2022-12-08T09:32:01;6.10;;;4.90;;
836;SDS011;400;53.550;9.932;2022-12-08T09:34:32;4.85;;;4.45;;
836;SDS011;400;53.550;9.932;2022-12-08T09:37:02;5.38;;;4.85;;
836;SDS011;400;53.550;9.932;2022-12-08T09:39:32;6.75;;;6.15;;
836;SDS011;400;53.550;9.932;2022-12-08T09:42:04;11.75;;;9.50;;
836;SDS011;400;53.550;9.932;2022-12-08T09:47:22;7.22;;;6.47;;
836;SDS011;400;53.550;9.932;2022-12-08T09:49:55;6.13;;;5.53;;
836;SDS011;400;53.550;9.932;2022-12-08T09:52:30;4.90;;;4.50;;
836;SDS011;400;53.550;9.932;2022-12-08T09:55:08;5.40;;;4.90;;
836;SDS011;400;53.550;9.932;2022-12-08T09:57:41;4.85;;;4.35;;
836;SDS011;400;53.550;9.932;2022-12-08T10:00:10;6.55;;;4.40;;
836;SDS011;400;53.550;9.932;2022-12-08T10:02:43;4.40;;;4.00;;
836;SDS011;400;53.550;9.932;2022-12-08T10:05:16;4.50;;;4.10;;
836;SDS011;400;53.550;9.932;2022-12-08T10:07:56;3.35;;;3.05;;
836;SDS011;400;53.550;9.932;2022-12-08T10:10:32;3.45;;;3.20;;
836;SDS011;400;53.550;9.932;2022-12-08T10:13:11;3.83;;;3.53;;
836;SDS011;400;53.550;9.932;2022-12-08T10:15:55;3.42;;;3.10;;
836;SDS011;400;53.550;9.932;2022-12-08T10:18:30;3.05;;;2.85;;
836;SDS011;400;53.550;9.932;2022-12-08T10:21:09;5.50;;;5.07;;
836;SDS011;400;53.550;9.932;2022-12-08T10:23:47;4.32;;;2.40;;
836;SDS011;400;53.550;9.932;2022-12-08T10:26:20;2.90;;;2.70;;
836;SDS011;400;53.550;9.932;2022-12-08T10:28:52;2.80;;;2.60;;
836;SDS011;400;53.550;9.932;2022-12-08T10:31:25;4.25;;;2.80;;
836;SDS011;400;53.550;9.932;2022-12-08T10:33:56;3.65;;;3.35;;
836;SDS011;400;53.550;9.932;2022-12-08T10:39:19;2.78;;;2.40;;
836;SDS011;400;53.550;9.932;2022-12-08T10:42:07;3.40;;;3.10;;
836;SDS011;400;53.550;9.932;2022-12-08T10:44:49;3.90;;;2.67;;
836;SDS011;400;53.550;9.932;2022-12-08T10:47:21;2.63;;;2.42;;
836;SDS011;400;53.550;9.932;2022-12-08T10:50:05;3.22;;;2.92;;
836;SDS011;400;53.550;9.932;2022-12-08T10:52:38;2.20;;;2.10;;
836;SDS011;400;53.550;9.932;2022-12-08T10:55:16;2.40;;;2.20;;
836;SDS011;400;53.550;9.932;2022-12-08T10:57:50;3.45;;;3.15;;
836;SDS011;400;53.550;9.932;2022-12-08T11:00:19;3.25;;;3.05;;
836;SDS011;400;53.550;9.932;2022-12-08T11:03:04;2.88;;;1.98;;
836;SDS011;400;53.550;9.932;2022-12-08T11:05:32;8.70;;;7.45;;
836;SDS011;400;53.550;9.932;2022-12-08T11:08:02;4.15;;;3.75;;
836;SDS011;400;53.550;9.932;2022-12-08T11:10:32;2.58;;;2.33;;
836;SDS011;400;53.550;9.932;2022-12-08T11:13:03;2.78;;;2.58;;
836;SDS011;400;53.550;9.932;2022-12-08T11:15:33;3.67;;;3.40;;
836;SDS011;400;53.550;9.932;2022-12-08T11:18:11;2.88;;;2.65;;
836;SDS011;400;53.550;9.932;2022-12-08T11:21:01;2.60;;;2.40;;
836;SDS011;400;53.550;9.932;2022-12-08T11:23:38;2.53;;;2.35;;
836;SDS011;400;53.550;9.932;2022-12-08T11:26:14;2.72;;;2.50;;
836;SDS011;400;53.550;9.932;2022-12-08T11:28:54;2.35;;;2.15;;
836;SDS011;400;53.550;9.932;2022-12-08T11:31:27;2.55;;;2.35;;
836;SDS011;400;53.550;9.932;2022-12-08T11:34:02;2.00;;;1.90;;
836;SDS011;400;53.550;9.932;2022-12-08T11:36:31;2.58;;;2.38;;
836;SDS011;400;53.550;9.932;2022-12-08T11:39:01;2.97;;;2.72;;
836;SDS011;400;53.550;9.932;2022-12-08T11:41:31;2.00;;;1.90;;
836;SDS011;400;53.550;9.932;2022-12-08T11:44:08;1.90;;;1.80;;
836;SDS011;400;53.550;9.932;2022-12-08T11:46:45;2.50;;;2.30;;
836;SDS011;400;53.550;9.932;2022-12-08T11:49:17;2.00;;;1.90;;
836;SDS011;400;53.550;9.932;2022-12-08T11:51:45;2.80;;;2.03;;
836;SDS011;400;53.550;9.932;2022-12-08T11:54:19;2.13;;;1.80;;
836;SDS011;400;53.550;9.932;2022-12-08T11:56:50;2.20;;;2.00;;
836;SDS011;400;53.550;9.932;2022-12-08T11:59:24;2.83;;;2.53;;
836;SDS011;400;53.550;9.932;2022-12-08T12:01:53;3.15;;;2.17;;
836;SDS011;400;53.550;9.932;2022-12-08T12:04:23;2.75;;;2.45;;
836;SDS011;400;53.550;9.932;2022-12-08T12:07:08;2.63;;;2.42;;
836;SDS011;400;53.550;9.932;2022-12-08T12:10:02;2.33;;;2.15;;
836;SDS011;400;53.550;9.932;2022-12-08T12:12:43;2.67;;;2.47;;
836;SDS011;400;53.550;9.932;2022-12-08T12:15:50;3.38;;;3.08;;
836;SDS011;400;53.550;9.932;2022-12-08T12:18:50;2.28;;;2.08;;
836;SDS011;400;53.550;9.932;2022-12-08T12:21:21;2.17;;;2.08;;
836;SDS011;400;53.550;9.932;2022-12-08T12:23:58;3.08;;;2.78;;
836;SDS011;400;53.550;9.932;2022-12-08T12:26:30;3.20;;;2.97;;
836;SDS011;400;53.550;9.932;2022-12-08T12:29:01;3.28;;;3.08;;
836;SDS011;400;53.550;9.932;2022-12-08T12:31:35;3.05;;;2.85;;
836;SDS011;400;53.550;9.932;2022-12-08T12:34:10;3.22;;;2.95;;
836;SDS011;400;53.550;9.932;2022-12-08T12:36:46;3.95;;;3.65;;
836;SDS011;400;53.550;9.932;2022-12-08T12:39:16;2.88;;;2.63;;
836;SDS011;400;53.550;9.932;2022-12-08T12:41:47;3.20;;;2.90;;
836;SDS011;400;53.550;9.932;2022-12-08T12:47:12;3.80;;;3.40;;
836;SDS011;400;53.550;9.932;2022-12-08T12:50:06;3.33;;;3.13;;
836;SDS011;400;53.550;9.932;2022-12-08T12:52:36;4.65;;;4.20;;
836;SDS011;400;53.550;9.932;2022-12-08T12:55:26;4.53;;;4.13;;
836;SDS011;400;53.550;9.932;2022-12-08T12:58:19;3.63;;;3.33;;
836;SDS011;400;53.550;9.932;2022-12-08T13:04:15;4.75;;;4.35;;
836;SDS011;400;53.550;9.932;2022-12-08T13:06:50;4.20;;;3.90;;
836;SDS011;400;53.550;9.932;2022-12-08T13:09:19;4.68;;;4.28;;
836;SDS011;400;53.550;9.932;2022-12-08T13:11:50;6.35;;;4.05;;
836;SDS011;400;53.550;9.932;2022-12-08T13:14:28;4.97;;;4.43;;
836;SDS011;400;53.550;9.932;2022-12-08T13:17:04;4.50;;;4.10;;
836;SDS011;400;53.550;9.932;2022-12-08T13:19:39;4.35;;;3.95;;
836;SDS011;400;53.550;9.932;2022-12-08T13:25:49;4.15;;;3.38;;
836;SDS011;400;53.550;9.932;2022-12-08T13:28:23;3.75;;;3.20;;
836;SDS011;400;53.550;9.932;2022-12-08T13:30:55;4.00;;;3.70;;
836;SDS011;400;53.550;9.932;2022-12-08T13:33:25;4.03;;;3.42;;
836;SDS011;400;53.550;9.932;2022-12-08T13:36:03;3.70;;;3.40;;
836;SDS011;400;53.550;9.932;2022-12-08T13:38:40;3.70;;;3.40;;
836;SDS011;400;53.550;9.932;2022-12-08T13:41:15;3.25;;;3.05;;
836;SDS011;400;53.550;9.932;2022-12-08T13:43:47;3.40;;;3.10;;
836;SDS011;400;53.550;9.932;2022-12-08T13:46:21;3.35;;;3.05;;
836;SDS011;400;53.550;9.932;2022-12-08T13:48:57;3.63;;;3.30;;
836;SDS011;400;53.550;9.932;2022-12-08T13:51:32;6.88;;;4.38;;
836;SDS011;400;53.550;9.932;2022-12-08T13:54:09;5.63;;;5.13;;
836;SDS011;400;53.550;9.932;2022-12-08T13:56:47;4.35;;;4.03;;
836;SDS011;400;53.550;9.932;2022-12-08T13:59:23;3.63;;;3.25;;
836;SDS011;400;53.550;9.932;2022-12-08T14:02:01;3.58;;;3.28;;
836;SDS011;400;53.550;9.932;2022-12-08T14:04:37;4.80;;;3.10;;
836;SDS011;400;53.550;9.932;2022-12-08T14:07:13;5.25;;;3.30;;
836;SDS011;400;53.550;9.932;2022-12-08T14:09:40;3.90;;;3.60;;
836;SDS011;400;53.550;9.932;2022-12-08T14:12:15;3.58;;;3.22;;
836;SDS011;400;53.550;9.932;2022-12-08T14:14:46;3.60;;;3.30;;
836;SDS011;400;53.550;9.932;2022-12-08T14:17:21;3.83;;;3.45;;
836;SDS011;400;53.550;9.932;2022-12-08T14:19:54;5.63;;;3.60;;
836;SDS011;400;53.550;9.932;2022-12-08T14:22:24;4.18;;;3.55;;
836;SDS011;400;53.550;9.932;2022-12-08T14:25:08;2.95;;;2.63;;
836;SDS011;400;53.550;9.932;2022-12-08T14:27:43;3.63;;;3.33;;
836;SDS011;400;53.550;9.932;2022-12-08T14:30:16;3.85;;;3.55;;
836;SDS011;400;53.550;9.932;2022-12-08T14:32:49;4.00;;;3.70;;
836;SDS011;400;53.550;9.932;2022-12-08T14:35:26;4.75;;;3.42;;
836;SDS011;400;53.550;9.932;2022-12-08T14:37:57;3.63;;;3.33;;
836;SDS011;400;53.550;9.932;2022-12-08T14:40:28;3.85;;;3.47;;
836;SDS011;400;53.550;9.932;2022-12-08T14:43:05;5.18;;;3.65;;
836;SDS011;400;53.550;9.932;2022-12-08T14:45:47;4.20;;;3.65;;
836;SDS011;400;53.550;9.932;2022-12-08T14:48:18;5.15;;;4.50;;
836;SDS011;400;53.550;9.932;2022-12-08T14:50:53;4.07;;;3.78;;
836;SDS011;400;53.550;9.932;2022-12-08T14:53:36;3.90;;;3.60;;
836;SDS011;400;53.550;9.932;2022-12-08T14:56:06;4.90;;;4.50;;
836;SDS011;400;53.550;9.932;2022-12-08T14:58:42;4.43;;;3.97;;
836;SDS011;400;53.550;9.932;2022-12-08T15:01:11;5.82;;;5.32;;
836;SDS011;400;53.550;9.932;2022-12-08T15:03:41;7.55;;;6.88;;
836;SDS011;400;53.550;9.932;2022-12-08T15:06:13;7.32;;;4.30;;
836;SDS011;400;53.550;9.932;2022-12-08T15:08:53;5.25;;;4.75;;
836;SDS011;400;53.550;9.932;2022-12-08T15:11:30;4.80;;;4.40;;
836;SDS011;400;53.550;9.932;2022-12-08T15:14:00;5.72;;;4.63;;
836;SDS011;400;53.550;9.932;2022-12-08T15:16:35;4.35;;;3.95;;
836;SDS011;400;53.550;9.932;2022-12-08T15:19:14;5.45;;;4.95;;
836;SDS011;400;53.550;9.932;2022-12-08T15:21:47;5.43;;;4.93;;
836;SDS011;400;53.550;9.932;2022-12-08T15:24:18;4.05;;;3.65;;
836;SDS011;400;53.550;9.932;2022-12-08T15:26:50;6.82;;;4.72;;
836;SDS011;400;53.550;9.932;2022-12-08T15:29:19;4.40;;;4.07;;
836;SDS011;400;53.550;9.932;2022-12-08T15:31:49;4.60;;;4.20;;
836;SDS011;400;53.550;9.932;2022-12-08T15:34:18;3.92;;;3.53;;
836;SDS011;400;53.550;9.932;2022-12-08T15:36:45;4.82;;;3.05;;
836;SDS011;400;53.550;9.932;2022-12-08T15:39:19;4.38;;;3.97;;
836;SDS011;400;53.550;9.932;2022-12-08T15:41:54;4.50;;;4.10;;
836;SDS011;400;53.550;9.932;2022-12-08T15:44:29;5.18;;;4.70;;
836;SDS011;400;53.550;9.932;2022-12-08T15:46:59;4.60;;;4.03;;
836;SDS011;400;53.550;9.932;2022-12-08T15:49:31;5.15;;;4.53;;
836;SDS011;400;53.550;9.932;2022-12-08T15:51:58;4.80;;;4.40;;
836;SDS011;400;53.550;9.932;2022-12-08T15:54:29;4.80;;;4.35;;
836;SDS011;400;53.550;9.932;2022-12-08T15:57:03;4.63;;;4.22;;
836;SDS011;400;53.550;9.932;2022-12-08T15:59:34;5.30;;;4.80;;
836;SDS011;400;53.550;9.932;2022-12-08T16:02:04;6.53;;;5.63;;
836;SDS011;400;53.550;9.932;2022-12-08T16:04:31;4.78;;;4.38;;
836;SDS011;400;53.550;9.932;2022-12-08T16:07:01;6.05;;;5.55;;
836;SDS011;400;53.550;9.932;2022-12-08T16:09:32;6.18;;;5.57;;
836;SDS011;400;53.550;9.932;2022-12-08T16:12:08;5.90;;;5.40;;
836;SDS011;400;53.550;9.932;2022-12-08T16:15:04;5.97;;;5.38;;
836;SDS011;400;53.550;9.932;2022-12-08T16:17:40;7.15;;;6.50;;
836;SDS011;400;53.550;9.932;2022-12-08T16:20:21;7.20;;;5.90;;
836;SDS011;400;53.550;9.932;2022-12-08T16:22:53;6.63;;;5.97;;
836;SDS011;400;53.550;9.932;2022-12-08T16:25:21;7.93;;;6.90;;
836;SDS011;400;53.550;9.932;2022-12-08T16:27:49;8.05;;;7.35;;
836;SDS011;400;53.550;9.932;2022-12-08T16:30:29;8.10;;;6.80;;
836;SDS011;400;53.550;9.932;2022-12-08T16:33:04;8.85;;;8.05;;
836;SDS011;400;53.550;9.932;2022-12-08T16:35:31;8.90;;;8.10;;
836;SDS011;400;53.550;9.932;2022-12-08T16:38:03;10.30;;;8.70;;